Tinker Air Force Base

Airport
ICAO code: 
KTIK
Summary
ICAO Region: 
NAM
Territory: 
Location: 
Oklahoma City, Okalahoma,
Coordinates: 
Aerial View: 
35° 25' 3.082" N, 97° 23' 14.699" W
Metar
Observation
KTIK 020256Z AUTO 22005KT 10SM CLR 14/02 A3007 RMK AO2 SLPNO T01420021 52005 $
Station
Tinker Air Force Base
Date/Time
2021-12-02 02:56:00
Wind direction
220°
Wind speed
05 kts
Lowest cloud amount
n/a
Temperature
14.2°C
Dew point
2.1°C
Humidity
43%
Weather condition
n/a

Description

Tinker Air Force Base is a United States Air Force installation located 10 km southeast of the central business district of Oklahoma City, Oklahoma.

Climatology

Humid “subtropical” climate (Köppen climate classification Cfa) - characterized by hot, humid summers and cool winters. Significant amounts of precipitation occur in all seasons in most areas. Winter rainfall (and sometimes snowfall) is associated with large storms that the westerlies steer from west to east. Most summer rainfall occurs during thunderstorms and occasional tropical storms (hurricanes).

Runways

Designator Length Width Surface Rops
12/30 3048 61 PEM Yes/Yes
17/35 3383 61 PEM Yes/Yes
Airport map: 
Aerial View: 

SKYbrary Partners:

Safety knowledge contributed by: